Het weer levert geen direct gevaar op.    Er zijn geen waarschuwingen afgegeven.

Regen radar Meer informatie rain snow radar


Bezoek onze andere website:

Template documentation
and downloads

And another site

Forum Leuven-template

EUWEATHER.EU

Verwachtingen Meteociel


U vindt ons ook hier:

Het Weer Aktueel

UK Metoffice

European Weather Network

WeatherCloud

Weather Underground

Benelux Weer Netwerk

AWEKAS

WeatherlinkIP

HAMweather, WeatherForYou, PWS Weather

Wetter.com



METAR rapporten vliegvelden

   
EBAW - Antwerp
Gewijzigd: 30-09-2020 11:50
Licht bewolkt  
Licht bewolkt  
   Wind: Zuiden 13 km/h
Wind: Zuiden 13 km/h
Temperatuur: 18°C
Dauwpunt: 14°C
Vochtigheid: 78%
Barometer: 1013 hPa
Bewolking: Licht bewolkt
Zicht: meer dan 10 km
Bewolking: Licht bewolkt 1300 ft
EBAW 300950Z 19007KT 160V220 9999 FEW013 18/14 Q1013 NOSIG
EBLG - Li├Ęge
Gewijzigd: 30-09-2020 11:50
Wat regen mogelijk, Grotendeels bewolkt  
Wat regen mogelijk, Grotendeels bewolkt  
   Wind: ZZW 16.7 km/h
Wind: ZZW 16.7 km/h
Temperatuur: 16°C
Dauwpunt: 14°C
Vochtigheid: 88%
Barometer: 1015 hPa
Bewolking: Grotendeels bewolkt
Zicht: meer dan 10 km
Bewolking: Licht bewolkt 900 ft,
Gedeeltelijk bewolkt 1300 ft,
Grotendeels bewolkt 1600 ft
EBLG 300950Z 20009KT 9999 -RA FEW009 SCT013 BKN016 16/14 Q1015 TEMPO 2800 RA BKN009
EBCV - Mons/Bergen
Gewijzigd: 30-09-2020 11:55
Grotendeels bewolkt  
Grotendeels bewolkt  
   Wind: ZZW 16.7 km/h
Wind: ZZW 16.7 km/h
Temperatuur: 17°C
Dauwpunt: 14°C
Vochtigheid: 83%
Barometer: 1013 hPa
Bewolking: Grotendeels bewolkt
Bewolking: Grotendeels bewolkt 1300 ft
EBCV 300955Z AUTO 20009KT //// BKN013/// 17/14 Q1013 GRN
EHBK - Maastricht
Gewijzigd: 30-09-2020 11:55
Heavy Drizzle, Bewolking  
Heavy Drizzle, Bewolking  
   Wind: Zuiden 11.1 km/h
Wind: Zuiden 11.1 km/h
Temperatuur: 16°C
Dauwpunt: 14°C
Vochtigheid: 88%
Barometer: 1015 hPa
Bewolking: Bewolking
Zicht: meer dan 10 km
Bewolking: Licht bewolkt 800 ft,
Bewolking 3500 ft
EHBK 300955Z AUTO 19006KT 160V220 9999 +DZ FEW008 OVC035 16/14 Q1015 NOSIG
ELLX - Luxemburg
Gewijzigd: 30-09-2020 11:50
Lichte (mot)regen, Nevel, Grotendeels bewolkt  
Lichte (mot)regen, Nevel, Grotendeels bewolkt  
   Wind: ZZO 7.4 km/h
Wind: ZZO 7.4 km/h
Temperatuur: 14°C
Dauwpunt: 13°C
Vochtigheid: 94%
Barometer: 1016 hPa
Bewolking: Grotendeels bewolkt
Zicht: 3 km
Bewolking: Gedeeltelijk bewolkt 200 ft,
Grotendeels bewolkt 400 ft
ELLX 300950Z 16004KT 130V190 3000 -DZ BR SCT002 BKN004 14/13 Q1016 BECMG 5000 BKN007
EBOS - Oostende
Gewijzigd: 30-09-2020 11:50
Grotendeels bewolkt  
Grotendeels bewolkt  
   Wind: Zuiden 14.8 km/h
Wind: Zuiden 14.8 km/h
Temperatuur: 15°C
Dauwpunt: 14°C
Vochtigheid: 94%
Barometer: 1012 hPa
Bewolking: Grotendeels bewolkt
Zicht: 8 km
Bewolking: Licht bewolkt 600 ft,
Grotendeels bewolkt 700 ft
EBOS 300950Z 19008KT 8000 FEW006 BKN007 15/14 Q1012 TEMPO SCT007 BKN012

Script ontwikkeld door  Saratoga-weather.org Aangepast voor de template door  Weerstation Leuven

Apparatuur in gebruik:

Weerstation
Davis VP2

Weerprogramma
Meteobridge

Weercomputer
Asus WL -330N3G

Webleverancier
Onecom

Davis VP2

Meteobridge

Asus WL -330N3G

Onecom